createdAt,value
2018-06-16T00:01:24.418Z,98850.00
2018-06-16T00:03:54.744Z,98853.00
2018-06-16T00:06:25.990Z,98853.00
2018-06-16T00:08:56.902Z,98850.00
2018-06-16T00:11:27.652Z,98853.00
2018-06-16T00:13:58.593Z,98854.00
2018-06-16T00:16:29.569Z,98861.00
2018-06-16T00:19:00.144Z,98853.00
2018-06-16T00:21:31.363Z,98861.00
2018-06-16T00:24:02.190Z,98861.00
2018-06-16T00:26:32.868Z,98855.00
2018-06-16T00:29:03.785Z,98853.00
2018-06-16T00:31:34.358Z,98849.00
2018-06-16T00:34:04.521Z,98853.00
2018-06-16T00:36:35.859Z,98862.00
2018-06-16T00:39:10.090Z,98858.00
2018-06-16T00:41:41.290Z,98857.00
2018-06-16T00:44:12.382Z,98850.00
2018-06-16T00:46:43.512Z,98846.00
2018-06-16T00:49:14.905Z,98847.00
2018-06-16T00:51:46.031Z,98851.00
2018-06-16T00:54:16.576Z,98850.00
2018-06-16T00:56:55.624Z,98853.00
2018-06-16T00:59:27.139Z,98859.00
2018-06-16T01:01:58.374Z,98852.00
2018-06-16T01:04:29.280Z,98851.00
2018-06-16T01:06:59.508Z,98847.00
2018-06-16T01:09:30.592Z,98845.00
2018-06-16T01:12:01.567Z,98844.00
2018-06-16T01:14:32.564Z,98843.00
2018-06-16T01:17:03.306Z,98850.00
2018-06-16T01:19:34.264Z,98850.00
2018-06-16T01:22:04.455Z,98851.00
2018-06-16T01:24:34.733Z,98849.00
2018-06-16T01:27:05.957Z,98854.00
2018-06-16T01:29:38.183Z,98857.00
2018-06-16T01:32:09.427Z,98854.00
2018-06-16T01:34:40.750Z,98860.00
2018-06-16T01:37:11.714Z,98868.00
2018-06-16T01:39:41.976Z,98866.00
2018-06-16T01:42:13.339Z,98874.00
2018-06-16T01:44:44.013Z,98870.00
2018-06-16T01:47:14.724Z,98870.00
2018-06-16T01:49:45.765Z,98872.00
2018-06-16T01:52:16.678Z,98877.00
2018-06-16T01:54:47.187Z,98880.00
2018-06-16T01:57:17.807Z,98876.00
2018-06-16T01:59:48.726Z,98873.00
2018-06-16T02:02:19.417Z,98877.00
2018-06-16T02:04:50.639Z,98878.00
2018-06-16T02:07:20.807Z,98874.00
2018-06-16T02:09:51.130Z,98873.00
2018-06-16T02:12:22.013Z,98871.00
2018-06-16T02:14:52.442Z,98870.00
2018-06-16T02:17:23.500Z,98868.00
2018-06-16T02:19:54.380Z,98872.00
2018-06-16T02:22:25.200Z,98867.00
2018-06-16T02:24:55.564Z,98866.00
2018-06-16T02:27:26.684Z,98870.00
2018-06-16T02:29:57.767Z,98872.00
2018-06-16T02:32:28.960Z,98871.00
2018-06-16T02:35:00.116Z,98868.00
2018-06-16T02:37:31.333Z,98864.00
2018-06-16T02:40:02.289Z,98867.00
2018-06-16T02:42:33.417Z,98868.00
2018-06-16T02:45:04.441Z,98866.00
2018-06-16T02:47:35.446Z,98865.00
2018-06-16T02:50:06.675Z,98868.00
2018-06-16T02:52:37.723Z,98873.00
2018-06-16T02:55:08.101Z,98874.00
2018-06-16T02:57:39.101Z,98876.00
2018-06-16T03:00:10.006Z,98884.00
2018-06-16T03:02:41.220Z,98883.00
2018-06-16T03:05:12.371Z,98879.00
2018-06-16T03:07:43.264Z,98883.00
2018-06-16T03:10:14.039Z,98889.00
2018-06-16T03:12:45.381Z,98894.00
2018-06-16T03:15:16.869Z,98903.00
2018-06-16T03:17:47.639Z,98906.00
2018-06-16T03:20:17.510Z,98911.00
2018-06-16T03:22:48.539Z,98911.00
2018-06-16T03:25:19.389Z,98920.00
2018-06-16T03:27:49.895Z,98919.00
2018-06-16T03:30:20.699Z,98918.00
2018-06-16T03:32:51.646Z,98916.00
2018-06-16T03:35:22.982Z,98912.00
2018-06-16T03:37:54.229Z,98921.00
2018-06-16T03:40:25.360Z,98920.00
2018-06-16T03:42:56.246Z,98919.00
2018-06-16T03:45:27.273Z,98917.00
2018-06-16T03:47:58.290Z,98916.00
2018-06-16T03:50:29.410Z,98916.00
2018-06-16T03:53:00.590Z,98906.00
2018-06-16T03:55:31.747Z,98908.00
2018-06-16T03:58:02.776Z,98910.00
2018-06-16T04:00:33.258Z,98915.00
2018-06-16T04:03:04.979Z,98916.00
2018-06-16T04:05:35.648Z,98916.00
2018-06-16T04:08:06.901Z,98915.00
2018-06-16T04:10:37.953Z,98922.00
2018-06-16T04:13:09.050Z,98917.00
2018-06-16T04:15:41.428Z,98915.00
2018-06-16T04:18:12.003Z,98914.00
2018-06-16T04:20:42.774Z,98915.00
2018-06-16T04:23:13.344Z,98920.00
2018-06-16T04:25:44.105Z,98919.00
2018-06-16T04:28:14.921Z,98910.00
2018-06-16T04:30:45.180Z,98914.00
2018-06-16T04:33:15.361Z,98919.00
2018-06-16T04:35:45.570Z,98919.00
2018-06-16T04:38:16.317Z,98921.00
2018-06-16T04:40:47.267Z,98911.00
2018-06-16T04:43:19.593Z,98911.00
2018-06-16T04:45:49.788Z,98920.00
2018-06-16T04:48:20.458Z,98930.00
2018-06-16T04:50:51.344Z,98928.00
2018-06-16T04:53:22.358Z,98922.00
2018-06-16T04:55:53.260Z,98921.00
2018-06-16T04:58:23.443Z,98918.00
2018-06-16T05:00:54.316Z,98922.00
2018-06-16T05:03:24.916Z,98922.00
2018-06-16T05:05:55.608Z,98933.00
2018-06-16T05:08:26.223Z,98935.00
2018-06-16T05:10:57.009Z,98926.00
2018-06-16T05:13:28.329Z,98918.00
2018-06-16T05:15:59.760Z,98918.00
2018-06-16T05:18:30.656Z,98916.00
2018-06-16T05:21:01.516Z,98916.00
2018-06-16T05:23:31.979Z,98905.00
2018-06-16T05:26:01.731Z,98907.00
2018-06-16T05:28:31.464Z,98905.00
2018-06-16T05:31:01.324Z,98907.00
2018-06-16T05:33:31.275Z,98908.00
2018-06-16T05:36:01.249Z,98910.00
2018-06-16T05:38:31.177Z,98910.00
2018-06-16T05:41:01.116Z,98913.00
2018-06-16T05:43:31.158Z,98913.00
2018-06-16T05:46:00.931Z,98916.00
2018-06-16T05:48:30.634Z,98912.00
2018-06-16T05:51:00.550Z,98916.00
2018-06-16T05:53:30.493Z,98919.00
2018-06-16T05:56:00.233Z,98920.00
2018-06-16T05:58:30.209Z,98923.00
2018-06-16T06:01:00.142Z,98925.00
2018-06-16T06:03:30.158Z,98929.00
2018-06-16T06:05:59.901Z,98926.00
2018-06-16T06:08:29.662Z,98927.00
2018-06-16T06:10:59.680Z,98927.00
2018-06-16T06:13:29.646Z,98916.00
2018-06-16T06:15:59.671Z,98920.00
2018-06-16T06:18:29.545Z,98917.00
2018-06-16T06:20:59.443Z,98915.00
2018-06-16T06:23:29.649Z,98921.00
2018-06-16T06:25:59.365Z,98921.00
2018-06-16T06:28:29.073Z,98924.00
2018-06-16T06:30:59.193Z,98919.00
2018-06-16T06:33:29.206Z,98919.00
2018-06-16T06:35:59.283Z,98910.00
2018-06-16T06:38:29.329Z,98905.00
2018-06-16T06:40:59.438Z,98895.00
2018-06-16T06:43:29.510Z,98893.00
2018-06-16T06:45:59.292Z,98899.00
2018-06-16T06:48:29.021Z,98903.00
2018-06-16T06:50:58.958Z,98891.00
2018-06-16T06:53:28.840Z,98890.00
2018-06-16T06:55:58.579Z,98884.00
2018-06-16T06:58:28.498Z,98885.00
2018-06-16T07:00:58.515Z,98884.00
2018-06-16T07:03:28.542Z,98879.00
2018-06-16T07:05:58.294Z,98885.00
2018-06-16T07:08:28.050Z,98882.00
2018-06-16T07:10:57.796Z,98881.00
2018-06-16T07:13:27.695Z,98876.00
2018-06-16T07:15:57.820Z,98873.00
2018-06-16T07:18:27.812Z,98875.00
2018-06-16T07:20:57.681Z,98872.00
2018-06-16T07:23:27.597Z,98871.00
2018-06-16T07:25:57.356Z,98876.00
2018-06-16T07:28:27.082Z,98876.00
2018-06-16T07:30:57.100Z,98869.00
2018-06-16T07:33:26.987Z,98878.00
2018-06-16T07:35:57.301Z,98881.00
2018-06-16T07:38:27.226Z,98875.00
2018-06-16T07:40:57.172Z,98873.00
2018-06-16T07:43:27.042Z,98878.00
2018-06-16T07:45:56.749Z,98874.00
2018-06-16T07:48:26.482Z,98877.00
2018-06-16T07:50:56.511Z,98874.00
2018-06-16T07:53:26.530Z,98870.00
2018-06-16T07:55:56.406Z,98867.00
2018-06-16T07:58:26.457Z,98864.00
2018-06-16T08:00:56.332Z,98861.00
2018-06-16T08:03:26.267Z,98853.00
2018-06-16T08:05:56.095Z,98854.00
2018-06-16T08:08:25.871Z,98855.00
2018-06-16T08:10:55.899Z,98847.00
2018-06-16T08:13:25.789Z,98849.00
2018-06-16T08:15:55.744Z,98841.00
2018-06-16T08:18:25.676Z,98847.00
2018-06-16T08:20:55.648Z,98851.00
2018-06-16T08:23:25.459Z,98847.00
2018-06-16T08:25:55.238Z,98843.00
2018-06-16T08:28:24.975Z,98845.00
2018-06-16T08:30:54.849Z,98847.00
2018-06-16T08:33:24.716Z,98842.00
2018-06-16T08:35:54.774Z,98832.00
2018-06-16T08:38:24.501Z,98834.00
2018-06-16T08:40:54.369Z,98829.00
2018-06-16T08:43:24.214Z,98836.00
2018-06-16T08:45:53.990Z,98830.00
2018-06-16T08:48:23.796Z,98827.00
2018-06-16T08:50:53.515Z,98828.00
2018-06-16T08:53:23.312Z,98828.00
2018-06-16T08:55:53.179Z,98825.00
2018-06-16T08:58:23.001Z,98824.00
2018-06-16T09:00:52.821Z,98822.00
2018-06-16T09:03:22.753Z,98820.00
2018-06-16T09:05:52.485Z,98816.00
2018-06-16T09:08:22.243Z,98817.00
2018-06-16T09:10:52.059Z,98806.00
2018-06-16T09:13:21.858Z,98806.00
2018-06-16T09:15:51.663Z,98808.00
2018-06-16T09:18:21.564Z,98806.00
2018-06-16T09:20:51.450Z,98809.00
2018-06-16T09:23:21.301Z,98811.00
2018-06-16T09:25:51.052Z,98818.00
2018-06-16T09:28:20.780Z,98817.00
2018-06-16T09:30:50.552Z,98809.00
2018-06-16T09:33:20.356Z,98812.00
2018-06-16T09:35:50.209Z,98820.00
2018-06-16T09:38:20.076Z,98820.00
2018-06-16T09:40:49.946Z,98812.00
2018-06-16T09:43:19.940Z,98806.00
2018-06-16T09:45:50.526Z,98812.00
2018-06-16T09:48:20.389Z,98815.00
2018-06-16T09:50:50.258Z,98810.00
2018-06-16T09:53:20.146Z,98814.00
2018-06-16T09:55:49.980Z,98823.00
2018-06-16T09:58:19.853Z,98829.00
2018-06-16T10:00:49.671Z,98836.00
2018-06-16T10:03:19.548Z,98838.00
2018-06-16T10:05:49.288Z,98836.00
2018-06-16T10:08:19.009Z,98834.00
2018-06-16T10:10:48.906Z,98838.00
2018-06-16T10:13:18.825Z,98833.00
2018-06-16T10:15:48.643Z,98833.00
2018-06-16T10:18:18.464Z,98832.00
2018-06-16T10:20:48.328Z,98836.00
2018-06-16T10:23:18.196Z,98845.00
2018-06-16T10:25:47.939Z,98855.00
2018-06-16T10:28:17.707Z,98849.00
2018-06-16T10:30:47.488Z,98848.00
2018-06-16T10:33:17.315Z,98845.00
2018-06-16T10:35:47.205Z,98841.00
2018-06-16T10:38:17.353Z,98840.00
2018-06-16T10:40:47.234Z,98839.00
2018-06-16T10:43:17.061Z,98839.00
2018-06-16T10:45:46.857Z,98832.00
2018-06-16T10:48:17.399Z,98836.00
2018-06-16T10:50:47.218Z,98842.00
2018-06-16T10:53:17.044Z,98841.00
2018-06-16T10:55:46.840Z,98844.00
2018-06-16T10:58:16.615Z,98850.00
2018-06-16T11:00:46.428Z,98853.00
2018-06-16T11:03:16.309Z,98876.00
2018-06-16T11:05:46.650Z,98896.00
2018-06-16T11:08:16.493Z,98961.00
2018-06-16T11:10:46.292Z,98969.00
2018-06-16T11:13:16.129Z,99015.00
2018-06-16T11:15:45.965Z,99006.00
2018-06-16T11:18:15.816Z,98999.00
2018-06-16T11:20:45.693Z,99000.00
2018-06-16T11:23:15.553Z,98983.00
2018-06-16T11:25:45.290Z,98975.00
2018-06-16T11:28:15.020Z,98971.00
2018-06-16T11:30:44.833Z,98973.00
2018-06-16T11:33:14.888Z,98971.00
2018-06-16T11:35:44.714Z,98957.00
2018-06-16T11:38:14.572Z,98955.00
2018-06-16T11:40:44.745Z,98951.00
2018-06-16T11:43:15.340Z,98947.00
2018-06-16T11:45:45.477Z,98948.00
2018-06-16T11:48:21.356Z,98947.00
2018-06-16T11:50:51.651Z,98948.00
2018-06-16T11:53:21.634Z,98937.00
2018-06-16T11:55:52.202Z,98934.00
2018-06-16T11:58:22.503Z,98935.00
2018-06-16T12:00:52.697Z,98940.00
2018-06-16T12:03:22.890Z,98941.00
2018-06-16T12:05:52.751Z,98946.00
2018-06-16T12:08:22.516Z,98961.00
2018-06-16T12:10:52.394Z,98954.00
2018-06-16T12:13:22.389Z,98963.00
2018-06-16T12:15:52.259Z,98963.00
2018-06-16T12:18:22.174Z,98973.00
2018-06-16T12:20:51.995Z,98977.00
2018-06-16T12:23:21.889Z,98994.00
2018-06-16T12:25:51.613Z,99002.00
2018-06-16T12:28:21.410Z,99012.00
2018-06-16T12:30:51.462Z,99017.00
2018-06-16T12:33:21.243Z,99013.00
2018-06-16T12:35:51.066Z,99025.00
2018-06-16T12:38:21.443Z,99041.00
2018-06-16T12:40:51.288Z,99039.00
2018-06-16T12:43:21.089Z,99043.00
2018-06-16T12:45:50.808Z,99049.00
2018-06-16T12:48:20.546Z,99043.00
2018-06-16T12:50:50.413Z,99045.00
2018-06-16T12:53:20.154Z,99045.00
2018-06-16T12:55:49.998Z,99048.00
2018-06-16T12:58:19.745Z,99041.00
2018-06-16T13:00:49.582Z,99029.00
2018-06-16T13:03:19.377Z,99020.00
2018-06-16T13:05:49.134Z,99010.00
2018-06-16T13:08:18.845Z,99013.00
2018-06-16T13:10:48.597Z,99006.00
2018-06-16T13:13:18.490Z,98997.00
2018-06-16T13:15:48.337Z,98981.00
2018-06-16T13:18:18.227Z,98973.00
2018-06-16T13:20:48.059Z,98968.00
2018-06-16T13:23:17.913Z,98963.00
2018-06-16T13:25:47.703Z,98957.00
2018-06-16T13:28:17.419Z,98959.00
2018-06-16T13:30:47.126Z,98943.00
2018-06-16T13:33:17.103Z,98934.00
2018-06-16T13:35:47.027Z,98931.00
2018-06-16T13:38:16.903Z,98927.00
2018-06-16T13:40:46.730Z,98926.00
2018-06-16T13:43:16.568Z,98923.00
2018-06-16T13:45:46.400Z,98920.00
2018-06-16T13:48:16.160Z,98913.00
2018-06-16T13:50:46.250Z,98906.00
2018-06-16T13:53:16.472Z,98895.00
2018-06-16T13:55:46.500Z,98882.00
2018-06-16T13:58:16.242Z,98886.00
2018-06-16T14:00:46.426Z,98888.00
2018-06-16T14:03:16.269Z,98888.00
2018-06-16T14:05:46.007Z,98888.00
2018-06-16T14:08:15.796Z,98882.00
2018-06-16T14:10:45.628Z,98876.00
2018-06-16T14:13:15.461Z,98880.00
2018-06-16T14:15:45.379Z,98881.00
2018-06-16T14:18:15.253Z,98871.00
2018-06-16T14:20:45.013Z,98862.00
2018-06-16T14:23:14.953Z,98863.00
2018-06-16T14:25:44.803Z,98857.00
2018-06-16T14:28:14.564Z,98859.00
2018-06-16T14:30:44.441Z,98857.00
2018-06-16T14:33:14.512Z,98858.00
2018-06-16T14:35:44.357Z,98867.00
2018-06-16T14:38:14.530Z,98870.00
2018-06-16T14:40:44.254Z,98864.00
2018-06-16T14:43:13.990Z,98870.00
2018-06-16T14:45:43.774Z,98870.00
2018-06-16T14:48:13.442Z,98872.00
2018-06-16T14:50:43.320Z,98883.00
2018-06-16T14:53:13.133Z,98879.00
2018-06-16T14:55:42.871Z,98883.00
2018-06-16T14:58:12.579Z,98880.00
2018-06-16T15:00:42.460Z,98878.00
2018-06-16T15:03:12.265Z,98881.00
2018-06-16T15:05:42.043Z,98874.00
2018-06-16T15:08:11.779Z,98872.00
2018-06-16T15:10:41.553Z,98864.00
2018-06-16T15:13:11.264Z,98854.00
2018-06-16T15:15:41.035Z,98839.00
2018-06-16T15:18:11.323Z,98833.00
2018-06-16T15:20:41.039Z,98823.00
2018-06-16T15:23:10.729Z,98820.00
2018-06-16T15:25:40.494Z,98814.00
2018-06-16T15:28:10.256Z,98817.00
2018-06-16T15:30:40.024Z,98822.00
2018-06-16T15:33:09.756Z,98814.00
2018-06-16T15:35:39.484Z,98795.00
2018-06-16T15:38:09.249Z,98801.00
2018-06-16T15:40:39.036Z,98805.00
2018-06-16T15:43:08.768Z,98817.00
2018-06-16T15:45:38.676Z,98822.00
2018-06-16T15:48:08.572Z,98825.00
2018-06-16T15:50:38.417Z,98830.00
2018-06-16T15:53:08.195Z,98837.00
2018-06-16T15:55:37.955Z,98838.00
2018-06-16T15:58:07.831Z,98829.00
2018-06-16T16:00:37.647Z,98825.00
2018-06-16T16:03:07.512Z,98821.00
2018-06-16T16:05:37.323Z,98811.00
2018-06-16T16:08:07.354Z,98813.00
2018-06-16T16:10:37.197Z,98817.00
2018-06-16T16:13:06.992Z,98812.00
2018-06-16T16:15:36.824Z,98812.00
2018-06-16T16:18:06.670Z,98820.00
2018-06-16T16:20:36.633Z,98817.00
2018-06-16T16:23:06.575Z,98818.00
2018-06-16T16:25:36.416Z,98820.00
2018-06-16T16:28:06.214Z,98822.00
2018-06-16T16:30:36.204Z,98823.00
2018-06-16T16:33:06.087Z,98827.00
2018-06-16T16:35:35.923Z,98827.00
2018-06-16T16:38:05.897Z,98839.00
2018-06-16T16:40:35.678Z,98838.00
2018-06-16T16:43:05.624Z,98843.00
2018-06-16T16:45:35.387Z,98842.00
2018-06-16T16:48:05.319Z,98845.00
2018-06-16T16:50:35.159Z,98845.00
2018-06-16T16:53:04.980Z,98851.00
2018-06-16T16:55:34.857Z,98849.00
2018-06-16T16:58:04.613Z,98855.00
2018-06-16T17:00:34.576Z,98862.00
2018-06-16T17:03:04.750Z,98870.00
2018-06-16T17:05:34.562Z,98875.00
2018-06-16T17:08:04.310Z,98888.00
2018-06-16T17:10:34.467Z,98895.00
2018-06-16T17:13:04.625Z,98904.00
2018-06-16T17:15:34.684Z,98909.00
2018-06-16T17:18:04.385Z,98910.00
2018-06-16T17:20:34.227Z,98919.00
2018-06-16T17:23:03.940Z,98923.00
2018-06-16T17:25:33.834Z,98930.00
2018-06-16T17:28:03.574Z,98925.00
2018-06-16T17:30:33.333Z,98922.00
2018-06-16T17:33:03.100Z,98915.00
2018-06-16T17:35:32.930Z,98911.00
2018-06-16T17:38:02.631Z,98913.00
2018-06-16T17:40:32.453Z,98926.00
2018-06-16T17:43:02.274Z,98926.00
2018-06-16T17:45:32.120Z,98934.00
2018-06-16T17:48:01.886Z,98939.00
2018-06-16T17:50:31.580Z,98939.00
2018-06-16T17:53:01.378Z,98940.00
2018-06-16T17:55:31.164Z,98945.00
2018-06-16T17:58:00.949Z,98948.00
2018-06-16T18:00:30.768Z,98952.00
2018-06-16T18:03:00.539Z,98949.00
2018-06-16T18:05:30.312Z,98946.00
2018-06-16T18:08:00.157Z,98949.00
2018-06-16T18:10:29.951Z,98953.00
2018-06-16T18:12:59.656Z,98949.00
2018-06-16T18:15:29.361Z,98949.00
2018-06-16T18:17:59.127Z,98956.00
2018-06-16T18:20:28.840Z,98964.00
2018-06-16T18:22:58.623Z,98964.00
2018-06-16T18:25:28.426Z,98967.00
2018-06-16T18:27:58.142Z,98971.00
2018-06-16T18:30:27.930Z,98974.00
2018-06-16T18:32:58.067Z,98970.00
2018-06-16T18:35:28.423Z,98964.00
2018-06-16T18:37:58.801Z,98960.00
2018-06-16T18:40:29.160Z,98963.00
2018-06-16T18:42:59.442Z,98958.00
2018-06-16T18:45:29.279Z,98958.00
2018-06-16T18:47:58.988Z,98960.00
2018-06-16T18:50:28.808Z,98964.00
2018-06-16T18:52:58.613Z,98966.00
2018-06-16T18:55:28.456Z,98963.00
2018-06-16T18:57:58.394Z,98962.00
2018-06-16T19:00:28.612Z,98960.00
2018-06-16T19:02:58.624Z,98962.00
2018-06-16T19:05:28.460Z,98967.00
2018-06-16T19:08:07.911Z,98969.00
2018-06-16T19:10:38.207Z,98978.00
2018-06-16T19:13:08.000Z,98980.00
2018-06-16T19:15:37.919Z,98989.00
2018-06-16T19:18:07.696Z,98990.00
2018-06-16T19:20:37.475Z,98997.00
2018-06-16T19:23:07.408Z,99005.00
2018-06-16T19:25:37.151Z,99012.00
2018-06-16T19:28:06.905Z,99010.00
2018-06-16T19:30:36.625Z,99013.00
2018-06-16T19:33:06.383Z,99015.00
2018-06-16T19:35:36.257Z,99017.00
2018-06-16T19:38:06.068Z,99021.00
2018-06-16T19:40:35.822Z,99021.00
2018-06-16T19:43:05.613Z,99019.00
2018-06-16T19:45:35.413Z,99023.00
2018-06-16T19:48:05.171Z,99023.00
2018-06-16T19:50:34.900Z,99030.00
2018-06-16T19:53:04.646Z,99033.00
2018-06-16T19:55:34.409Z,99030.00
2018-06-16T19:58:05.716Z,99027.00
2018-06-16T20:00:35.488Z,99035.00
2018-06-16T20:03:05.287Z,99031.00
2018-06-16T20:05:34.968Z,99029.00
2018-06-16T20:08:05.061Z,99033.00
2018-06-16T20:10:34.823Z,99032.00
2018-06-16T20:13:04.562Z,99041.00
2018-06-16T20:15:34.315Z,99045.00
2018-06-16T20:18:04.082Z,99037.00
2018-06-16T20:20:33.767Z,99051.00
2018-06-16T20:23:03.444Z,99049.00
2018-06-16T20:25:34.088Z,99057.00
2018-06-16T20:28:04.747Z,99060.00
2018-06-16T20:30:35.362Z,99059.00
2018-06-16T20:33:06.150Z,99060.00
2018-06-16T20:35:36.854Z,99057.00
2018-06-16T20:38:07.554Z,99054.00
2018-06-16T20:40:38.199Z,99049.00
2018-06-16T20:43:08.817Z,99048.00
2018-06-16T20:45:39.833Z,99043.00
2018-06-16T20:48:09.698Z,99047.00
2018-06-16T20:50:40.574Z,99047.00
2018-06-16T20:53:11.361Z,99044.00
2018-06-16T20:55:41.941Z,99047.00
2018-06-16T20:58:12.646Z,99045.00
2018-06-16T21:00:43.252Z,99043.00
2018-06-16T21:03:13.307Z,99041.00
2018-06-16T21:05:43.905Z,99044.00
2018-06-16T21:08:14.770Z,99042.00
2018-06-16T21:10:45.101Z,99046.00
2018-06-16T21:13:15.842Z,99049.00
2018-06-16T21:15:46.684Z,99050.00
2018-06-16T21:18:17.437Z,99054.00
2018-06-16T21:20:47.878Z,99055.00
2018-06-16T21:23:18.339Z,99054.00
2018-06-16T21:25:48.395Z,99043.00
2018-06-16T21:28:18.986Z,99036.00
2018-06-16T21:30:49.390Z,99034.00
2018-06-16T21:33:19.587Z,99038.00
2018-06-16T21:35:50.176Z,99031.00
2018-06-16T21:38:20.786Z,99030.00
2018-06-16T21:40:51.382Z,99020.00
2018-06-16T21:43:21.396Z,99017.00
2018-06-16T21:45:51.223Z,99013.00
2018-06-16T21:48:21.806Z,99005.00
2018-06-16T21:50:52.246Z,99010.00
2018-06-16T21:53:22.808Z,99006.00
2018-06-16T21:55:53.343Z,99004.00
2018-06-16T21:58:23.228Z,99001.00
2018-06-16T22:00:53.536Z,99002.00
2018-06-16T22:03:24.192Z,99001.00
2018-06-16T22:05:54.759Z,98999.00
2018-06-16T22:08:30.158Z,99006.00
2018-06-16T22:11:01.526Z,99008.00
2018-06-16T22:13:32.319Z,99009.00
2018-06-16T22:16:03.021Z,99011.00
2018-06-16T22:18:33.972Z,99010.00
2018-06-16T22:21:04.679Z,99002.00
2018-06-16T22:23:34.459Z,99002.00
2018-06-16T22:26:05.403Z,99003.00
2018-06-16T22:28:36.101Z,99003.00
2018-06-16T22:31:06.716Z,99003.00
2018-06-16T22:33:37.498Z,99003.00
2018-06-16T22:36:08.259Z,99012.00
2018-06-16T22:38:38.869Z,99010.00
2018-06-16T22:41:09.728Z,99017.00
2018-06-16T22:43:40.397Z,99014.00
2018-06-16T22:46:10.516Z,99012.00
2018-06-16T22:48:41.148Z,99013.00
2018-06-16T22:51:11.920Z,99017.00
2018-06-16T22:53:43.239Z,99016.00
2018-06-16T22:56:14.065Z,99014.00
2018-06-16T22:58:44.129Z,99009.00
2018-06-16T23:01:14.618Z,99012.00
2018-06-16T23:03:45.265Z,99010.00
2018-06-16T23:06:16.668Z,99016.00
2018-06-16T23:08:47.283Z,99017.00
2018-06-16T23:11:17.894Z,99027.00
2018-06-16T23:13:48.074Z,99030.00
2018-06-16T23:16:18.174Z,99038.00
2018-06-16T23:18:47.991Z,99036.00
2018-06-16T23:21:19.502Z,99036.00
2018-06-16T23:23:50.021Z,99041.00
2018-06-16T23:26:21.443Z,99050.00
2018-06-16T23:28:52.224Z,99053.00
2018-06-16T23:31:22.990Z,99056.00
2018-06-16T23:33:53.419Z,99050.00
2018-06-16T23:36:24.556Z,99057.00
2018-06-16T23:38:55.331Z,99046.00
2018-06-16T23:41:25.861Z,99054.00
2018-06-16T23:43:56.583Z,99056.00
2018-06-16T23:46:27.115Z,99054.00
2018-06-16T23:48:57.058Z,99047.00
2018-06-16T23:51:27.701Z,99041.00
2018-06-16T23:53:58.454Z,99035.00
2018-06-16T23:56:28.934Z,99032.00
2018-06-16T23:58:59.577Z,99028.00
